sensor_id;sensor_type;location;lat;lon;timestamp;temperature;humidity
10419;DHT22;5256;48.728;9.140;2023-08-01T00:02:24;16.50;99.90
10419;DHT22;5256;48.728;9.140;2023-08-01T00:04:50;16.50;99.90
10419;DHT22;5256;48.728;9.140;2023-08-01T00:07:16;16.50;99.90
10419;DHT22;5256;48.728;9.140;2023-08-01T00:09:41;16.50;99.90
10419;DHT22;5256;48.728;9.140;2023-08-01T00:12:07;16.40;99.90
10419;DHT22;5256;48.728;9.140;2023-08-01T00:14:32;16.40;99.90
10419;DHT22;5256;48.728;9.140;2023-08-01T00:16:58;16.40;99.90
10419;DHT22;5256;48.728;9.140;2023-08-01T00:19:23;16.40;99.90
10419;DHT22;5256;48.728;9.140;2023-08-01T00:21:49;16.30;99.90
10419;DHT22;5256;48.728;9.140;2023-08-01T00:24:15;16.30;99.90
10419;DHT22;5256;48.728;9.140;2023-08-01T00:26:40;16.30;99.90
10419;DHT22;5256;48.728;9.140;2023-08-01T00:29:06;16.40;99.90
10419;DHT22;5256;48.728;9.140;2023-08-01T00:31:31;16.40;99.90
10419;DHT22;5256;48.728;9.140;2023-08-01T00:33:57;16.50;99.90
10419;DHT22;5256;48.728;9.140;2023-08-01T00:36:23;16.40;99.90
10419;DHT22;5256;48.728;9.140;2023-08-01T00:38:48;16.40;99.90
10419;DHT22;5256;48.728;9.140;2023-08-01T00:41:14;16.40;99.90
10419;DHT22;5256;48.728;9.140;2023-08-01T00:43:40;16.50;99.90
10419;DHT22;5256;48.728;9.140;2023-08-01T00:46:06;16.50;99.90
10419;DHT22;5256;48.728;9.140;2023-08-01T00:48:32;16.50;99.90
10419;DHT22;5256;48.728;9.140;2023-08-01T00:50:59;16.50;99.90
10419;DHT22;5256;48.728;9.140;2023-08-01T00:53:26;16.60;99.90
10419;DHT22;5256;48.728;9.140;2023-08-01T00:55:52;16.60;99.90
10419;DHT22;5256;48.728;9.140;2023-08-01T00:58:19;16.60;99.90
10419;DHT22;5256;48.728;9.140;2023-08-01T01:00:45;16.70;99.90
10419;DHT22;5256;48.728;9.140;2023-08-01T01:03:11;16.70;99.90
10419;DHT22;5256;48.728;9.140;2023-08-01T01:05:38;16.70;99.90
10419;DHT22;5256;48.728;9.140;2023-08-01T01:08:06;16.70;99.90
10419;DHT22;5256;48.728;9.140;2023-08-01T01:10:31;16.80;99.90
10419;DHT22;5256;48.728;9.140;2023-08-01T01:12:57;16.80;99.90
10419;DHT22;5256;48.728;9.140;2023-08-01T01:15:23;16.80;99.90
10419;DHT22;5256;48.728;9.140;2023-08-01T01:17:48;16.90;99.90
10419;DHT22;5256;48.728;9.140;2023-08-01T01:20:14;16.90;99.90
10419;DHT22;5256;48.728;9.140;2023-08-01T01:22:40;16.90;99.90
10419;DHT22;5256;48.728;9.140;2023-08-01T01:25:07;16.90;99.90
10419;DHT22;5256;48.728;9.140;2023-08-01T01:27:35;16.80;99.90
10419;DHT22;5256;48.728;9.140;2023-08-01T01:30:01;16.80;99.90
10419;DHT22;5256;48.728;9.140;2023-08-01T01:32:29;16.70;99.90
10419;DHT22;5256;48.728;9.140;2023-08-01T01:34:55;16.60;99.90
10419;DHT22;5256;48.728;9.140;2023-08-01T01:37:21;16.40;99.90
10419;DHT22;5256;48.728;9.140;2023-08-01T01:39:47;16.30;99.90
10419;DHT22;5256;48.728;9.140;2023-08-01T01:42:12;16.20;99.90
10419;DHT22;5256;48.728;9.140;2023-08-01T01:44:38;16.10;99.90
10419;DHT22;5256;48.728;9.140;2023-08-01T01:47:04;16.00;99.90
10419;DHT22;5256;48.728;9.140;2023-08-01T01:49:30;16.00;99.90
10419;DHT22;5256;48.728;9.140;2023-08-01T01:51:55;15.90;99.90
10419;DHT22;5256;48.728;9.140;2023-08-01T01:54:21;15.90;99.90
10419;DHT22;5256;48.728;9.140;2023-08-01T01:56:46;15.90;99.90
10419;DHT22;5256;48.728;9.140;2023-08-01T01:59:12;15.90;99.90
10419;DHT22;5256;48.728;9.140;2023-08-01T02:01:38;15.90;99.90
10419;DHT22;5256;48.728;9.140;2023-08-01T02:04:03;15.90;99.90
10419;DHT22;5256;48.728;9.140;2023-08-01T02:06:29;15.90;99.90
10419;DHT22;5256;48.728;9.140;2023-08-01T02:08:54;15.90;99.90
10419;DHT22;5256;48.728;9.140;2023-08-01T02:11:20;15.90;99.90
10419;DHT22;5256;48.728;9.140;2023-08-01T02:13:45;15.80;99.90
10419;DHT22;5256;48.728;9.140;2023-08-01T02:16:11;15.80;99.90
10419;DHT22;5256;48.728;9.140;2023-08-01T02:18:36;15.80;99.90
10419;DHT22;5256;48.728;9.140;2023-08-01T02:21:02;15.80;99.90
10419;DHT22;5256;48.728;9.140;2023-08-01T02:23:28;15.80;99.90
10419;DHT22;5256;48.728;9.140;2023-08-01T02:25:54;15.90;99.90
10419;DHT22;5256;48.728;9.140;2023-08-01T02:28:20;15.90;99.90
10419;DHT22;5256;48.728;9.140;2023-08-01T02:30:45;15.90;99.90
10419;DHT22;5256;48.728;9.140;2023-08-01T02:33:11;15.90;99.90
10419;DHT22;5256;48.728;9.140;2023-08-01T02:35:37;15.90;99.90
10419;DHT22;5256;48.728;9.140;2023-08-01T02:38:03;16.00;99.90
10419;DHT22;5256;48.728;9.140;2023-08-01T02:40:28;16.00;99.90
10419;DHT22;5256;48.728;9.140;2023-08-01T02:42:54;16.00;99.90
10419;DHT22;5256;48.728;9.140;2023-08-01T02:45:20;16.10;99.90
10419;DHT22;5256;48.728;9.140;2023-08-01T02:47:45;16.10;99.90
10419;DHT22;5256;48.728;9.140;2023-08-01T02:50:11;16.10;99.90
10419;DHT22;5256;48.728;9.140;2023-08-01T02:52:36;16.10;99.90
10419;DHT22;5256;48.728;9.140;2023-08-01T02:55:02;16.20;99.90
10419;DHT22;5256;48.728;9.140;2023-08-01T02:57:28;16.10;99.90
10419;DHT22;5256;48.728;9.140;2023-08-01T02:59:53;16.10;99.90
10419;DHT22;5256;48.728;9.140;2023-08-01T03:02:19;16.20;99.90
10419;DHT22;5256;48.728;9.140;2023-08-01T03:04:44;16.20;99.90
10419;DHT22;5256;48.728;9.140;2023-08-01T03:07:13;16.20;99.90
10419;DHT22;5256;48.728;9.140;2023-08-01T03:09:38;16.30;99.90
10419;DHT22;5256;48.728;9.140;2023-08-01T03:12:04;16.30;99.90
10419;DHT22;5256;48.728;9.140;2023-08-01T03:14:29;16.20;99.90
10419;DHT22;5256;48.728;9.140;2023-08-01T03:16:55;16.30;99.90
10419;DHT22;5256;48.728;9.140;2023-08-01T03:19:21;16.40;99.90
10419;DHT22;5256;48.728;9.140;2023-08-01T03:21:46;16.40;99.90
10419;DHT22;5256;48.728;9.140;2023-08-01T03:24:12;16.40;99.90
10419;DHT22;5256;48.728;9.140;2023-08-01T03:26:37;16.40;99.90
10419;DHT22;5256;48.728;9.140;2023-08-01T03:29:03;16.50;99.90
10419;DHT22;5256;48.728;9.140;2023-08-01T03:31:30;16.50;99.90
10419;DHT22;5256;48.728;9.140;2023-08-01T03:33:56;16.60;99.90
10419;DHT22;5256;48.728;9.140;2023-08-01T03:36:24;16.70;99.90
10419;DHT22;5256;48.728;9.140;2023-08-01T03:38:49;16.70;99.90
10419;DHT22;5256;48.728;9.140;2023-08-01T03:41:15;16.70;99.90
10419;DHT22;5256;48.728;9.140;2023-08-01T03:43:40;16.70;99.90
10419;DHT22;5256;48.728;9.140;2023-08-01T03:46:07;16.80;99.90
10419;DHT22;5256;48.728;9.140;2023-08-01T03:48:32;16.90;99.90
10419;DHT22;5256;48.728;9.140;2023-08-01T03:50:58;16.90;99.90
10419;DHT22;5256;48.728;9.140;2023-08-01T03:53:24;17.00;99.90
10419;DHT22;5256;48.728;9.140;2023-08-01T03:55:49;17.00;99.90
10419;DHT22;5256;48.728;9.140;2023-08-01T03:58:15;17.10;99.90
10419;DHT22;5256;48.728;9.140;2023-08-01T04:00:40;17.10;99.90
10419;DHT22;5256;48.728;9.140;2023-08-01T04:03:06;17.20;99.90
10419;DHT22;5256;48.728;9.140;2023-08-01T04:05:32;17.20;99.90
10419;DHT22;5256;48.728;9.140;2023-08-01T04:07:59;17.20;99.90
10419;DHT22;5256;48.728;9.140;2023-08-01T04:10:24;17.20;99.90
10419;DHT22;5256;48.728;9.140;2023-08-01T04:12:50;17.20;99.90
10419;DHT22;5256;48.728;9.140;2023-08-01T04:15:16;17.20;99.90
10419;DHT22;5256;48.728;9.140;2023-08-01T04:17:41;17.20;99.90
10419;DHT22;5256;48.728;9.140;2023-08-01T04:20:07;17.10;99.90
10419;DHT22;5256;48.728;9.140;2023-08-01T04:22:33;17.10;99.90
10419;DHT22;5256;48.728;9.140;2023-08-01T04:25:00;17.10;99.90
10419;DHT22;5256;48.728;9.140;2023-08-01T04:27:25;17.10;99.90
10419;DHT22;5256;48.728;9.140;2023-08-01T04:29:51;17.10;99.90
10419;DHT22;5256;48.728;9.140;2023-08-01T04:32:17;17.10;99.90
10419;DHT22;5256;48.728;9.140;2023-08-01T04:34:42;17.00;99.90
10419;DHT22;5256;48.728;9.140;2023-08-01T04:37:08;17.00;99.90
10419;DHT22;5256;48.728;9.140;2023-08-01T04:39:34;17.00;99.90
10419;DHT22;5256;48.728;9.140;2023-08-01T04:41:59;17.00;99.90
10419;DHT22;5256;48.728;9.140;2023-08-01T04:44:25;17.00;99.90
10419;DHT22;5256;48.728;9.140;2023-08-01T04:46:50;17.00;99.90
10419;DHT22;5256;48.728;9.140;2023-08-01T04:49:16;16.90;99.90
10419;DHT22;5256;48.728;9.140;2023-08-01T04:51:41;17.00;99.90
10419;DHT22;5256;48.728;9.140;2023-08-01T04:54:07;17.00;99.90
10419;DHT22;5256;48.728;9.140;2023-08-01T04:56:32;17.10;99.90
10419;DHT22;5256;48.728;9.140;2023-08-01T04:58:58;17.20;99.90
10419;DHT22;5256;48.728;9.140;2023-08-01T05:01:23;17.20;99.90
10419;DHT22;5256;48.728;9.140;2023-08-01T05:03:49;17.20;99.90
10419;DHT22;5256;48.728;9.140;2023-08-01T05:06:14;17.30;99.90
10419;DHT22;5256;48.728;9.140;2023-08-01T05:08:40;17.30;99.90
10419;DHT22;5256;48.728;9.140;2023-08-01T05:11:06;17.30;99.90
10419;DHT22;5256;48.728;9.140;2023-08-01T05:13:31;17.30;99.90
10419;DHT22;5256;48.728;9.140;2023-08-01T05:15:57;17.30;99.90
10419;DHT22;5256;48.728;9.140;2023-08-01T05:18:22;17.30;99.90
10419;DHT22;5256;48.728;9.140;2023-08-01T05:20:48;17.40;99.90
10419;DHT22;5256;48.728;9.140;2023-08-01T05:23:13;17.40;99.90
10419;DHT22;5256;48.728;9.140;2023-08-01T05:25:39;17.40;99.90
10419;DHT22;5256;48.728;9.140;2023-08-01T05:28:04;17.40;99.90
10419;DHT22;5256;48.728;9.140;2023-08-01T05:30:30;17.40;99.90
10419;DHT22;5256;48.728;9.140;2023-08-01T05:32:55;17.50;99.90
10419;DHT22;5256;48.728;9.140;2023-08-01T05:35:21;17.50;99.90
10419;DHT22;5256;48.728;9.140;2023-08-01T05:37:47;17.60;99.90
10419;DHT22;5256;48.728;9.140;2023-08-01T05:40:13;17.60;99.90
10419;DHT22;5256;48.728;9.140;2023-08-01T05:42:38;17.60;99.90
10419;DHT22;5256;48.728;9.140;2023-08-01T05:45:04;17.60;99.90
10419;DHT22;5256;48.728;9.140;2023-08-01T05:47:30;17.70;99.90
10419;DHT22;5256;48.728;9.140;2023-08-01T05:49:56;17.70;99.90
10419;DHT22;5256;48.728;9.140;2023-08-01T05:52:22;17.80;99.90
10419;DHT22;5256;48.728;9.140;2023-08-01T05:54:48;17.90;99.90
10419;DHT22;5256;48.728;9.140;2023-08-01T05:57:13;17.90;99.90
10419;DHT22;5256;48.728;9.140;2023-08-01T05:59:39;18.00;99.90
10419;DHT22;5256;48.728;9.140;2023-08-01T06:02:05;17.90;99.90
10419;DHT22;5256;48.728;9.140;2023-08-01T06:04:31;18.00;99.90
10419;DHT22;5256;48.728;9.140;2023-08-01T06:06:56;18.00;99.90
10419;DHT22;5256;48.728;9.140;2023-08-01T06:09:22;18.10;99.90
10419;DHT22;5256;48.728;9.140;2023-08-01T06:11:48;18.00;99.90
10419;DHT22;5256;48.728;9.140;2023-08-01T06:14:13;18.10;99.90
10419;DHT22;5256;48.728;9.140;2023-08-01T06:16:39;18.10;99.90
10419;DHT22;5256;48.728;9.140;2023-08-01T06:19:04;18.00;99.90
10419;DHT22;5256;48.728;9.140;2023-08-01T06:21:30;18.10;99.90
10419;DHT22;5256;48.728;9.140;2023-08-01T06:23:55;18.00;99.90
10419;DHT22;5256;48.728;9.140;2023-08-01T06:26:21;17.90;99.90
10419;DHT22;5256;48.728;9.140;2023-08-01T06:28:52;17.80;99.90
10419;DHT22;5256;48.728;9.140;2023-08-01T06:31:22;17.50;99.90
10419;DHT22;5256;48.728;9.140;2023-08-01T06:33:47;17.40;99.90
10419;DHT22;5256;48.728;9.140;2023-08-01T06:36:13;17.30;99.90
10419;DHT22;5256;48.728;9.140;2023-08-01T06:38:39;17.30;99.90
10419;DHT22;5256;48.728;9.140;2023-08-01T06:41:04;17.40;99.90
10419;DHT22;5256;48.728;9.140;2023-08-01T06:43:30;17.50;99.90
10419;DHT22;5256;48.728;9.140;2023-08-01T06:45:55;17.50;99.90
10419;DHT22;5256;48.728;9.140;2023-08-01T06:48:21;17.40;99.90
10419;DHT22;5256;48.728;9.140;2023-08-01T06:50:46;17.30;99.90
10419;DHT22;5256;48.728;9.140;2023-08-01T06:53:12;17.20;99.90
10419;DHT22;5256;48.728;9.140;2023-08-01T06:55:38;17.00;99.90
10419;DHT22;5256;48.728;9.140;2023-08-01T06:58:03;16.70;99.90
10419;DHT22;5256;48.728;9.140;2023-08-01T07:00:29;16.40;99.90
10419;DHT22;5256;48.728;9.140;2023-08-01T07:02:54;16.30;99.90
10419;DHT22;5256;48.728;9.140;2023-08-01T07:05:20;16.20;99.90
10419;DHT22;5256;48.728;9.140;2023-08-01T07:07:45;16.20;99.90
10419;DHT22;5256;48.728;9.140;2023-08-01T07:10:11;16.20;99.90
10419;DHT22;5256;48.728;9.140;2023-08-01T07:12:36;16.30;99.90
10419;DHT22;5256;48.728;9.140;2023-08-01T07:15:02;16.30;99.90
10419;DHT22;5256;48.728;9.140;2023-08-01T07:17:27;16.50;99.90
10419;DHT22;5256;48.728;9.140;2023-08-01T07:19:53;16.60;99.90
10419;DHT22;5256;48.728;9.140;2023-08-01T07:22:20;16.70;99.90
10419;DHT22;5256;48.728;9.140;2023-08-01T07:24:45;16.70;99.90
10419;DHT22;5256;48.728;9.140;2023-08-01T07:27:11;16.50;99.90
10419;DHT22;5256;48.728;9.140;2023-08-01T07:29:37;16.30;99.90
10419;DHT22;5256;48.728;9.140;2023-08-01T07:32:03;16.20;99.90
10419;DHT22;5256;48.728;9.140;2023-08-01T07:34:29;16.20;99.90
10419;DHT22;5256;48.728;9.140;2023-08-01T07:36:55;16.10;99.90
10419;DHT22;5256;48.728;9.140;2023-08-01T07:39:20;16.10;99.90
10419;DHT22;5256;48.728;9.140;2023-08-01T07:41:46;16.10;99.90
10419;DHT22;5256;48.728;9.140;2023-08-01T07:44:12;16.00;99.90
10419;DHT22;5256;48.728;9.140;2023-08-01T07:46:37;16.00;99.90
10419;DHT22;5256;48.728;9.140;2023-08-01T07:49:03;15.90;99.90
10419;DHT22;5256;48.728;9.140;2023-08-01T07:51:28;15.80;99.90
10419;DHT22;5256;48.728;9.140;2023-08-01T07:53:55;15.70;99.90
10419;DHT22;5256;48.728;9.140;2023-08-01T07:56:20;15.60;99.90
10419;DHT22;5256;48.728;9.140;2023-08-01T07:58:46;15.50;99.90
10419;DHT22;5256;48.728;9.140;2023-08-01T08:01:11;15.50;99.90
10419;DHT22;5256;48.728;9.140;2023-08-01T08:03:37;15.50;99.90
10419;DHT22;5256;48.728;9.140;2023-08-01T08:06:03;15.50;99.90
10419;DHT22;5256;48.728;9.140;2023-08-01T08:08:29;15.50;99.90
10419;DHT22;5256;48.728;9.140;2023-08-01T08:10:55;15.60;99.90
10419;DHT22;5256;48.728;9.140;2023-08-01T08:13:21;15.60;99.90
10419;DHT22;5256;48.728;9.140;2023-08-01T08:15:47;15.60;99.90
10419;DHT22;5256;48.728;9.140;2023-08-01T08:18:13;15.60;99.90
10419;DHT22;5256;48.728;9.140;2023-08-01T08:20:43;15.60;99.90
10419;DHT22;5256;48.728;9.140;2023-08-01T08:23:10;15.60;99.90
10419;DHT22;5256;48.728;9.140;2023-08-01T08:25:35;15.70;99.90
10419;DHT22;5256;48.728;9.140;2023-08-01T08:28:01;15.70;99.90
10419;DHT22;5256;48.728;9.140;2023-08-01T08:30:27;15.60;99.90
10419;DHT22;5256;48.728;9.140;2023-08-01T08:32:52;15.70;99.90
10419;DHT22;5256;48.728;9.140;2023-08-01T08:35:18;15.70;99.90
10419;DHT22;5256;48.728;9.140;2023-08-01T08:37:43;15.80;99.90
10419;DHT22;5256;48.728;9.140;2023-08-01T08:40:09;15.80;99.90
10419;DHT22;5256;48.728;9.140;2023-08-01T08:42:35;16.00;99.90
10419;DHT22;5256;48.728;9.140;2023-08-01T08:45:02;16.10;99.90
10419;DHT22;5256;48.728;9.140;2023-08-01T08:47:28;16.30;99.90
10419;DHT22;5256;48.728;9.140;2023-08-01T08:49:56;16.50;99.90
10419;DHT22;5256;48.728;9.140;2023-08-01T08:52:23;16.60;99.90
10419;DHT22;5256;48.728;9.140;2023-08-01T08:54:50;16.70;99.90
10419;DHT22;5256;48.728;9.140;2023-08-01T08:57:16;16.80;99.90
10419;DHT22;5256;48.728;9.140;2023-08-01T08:59:43;16.90;99.90
10419;DHT22;5256;48.728;9.140;2023-08-01T09:02:09;17.00;99.90
10419;DHT22;5256;48.728;9.140;2023-08-01T09:04:35;17.10;99.90
10419;DHT22;5256;48.728;9.140;2023-08-01T09:07:10;17.00;99.90
10419;DHT22;5256;48.728;9.140;2023-08-01T09:09:37;17.00;99.90
10419;DHT22;5256;48.728;9.140;2023-08-01T09:12:03;17.00;99.90
10419;DHT22;5256;48.728;9.140;2023-08-01T09:14:28;17.10;99.90
10419;DHT22;5256;48.728;9.140;2023-08-01T09:16:55;17.10;99.90
10419;DHT22;5256;48.728;9.140;2023-08-01T09:19:23;17.10;99.90
10419;DHT22;5256;48.728;9.140;2023-08-01T09:21:49;17.00;99.90
10419;DHT22;5256;48.728;9.140;2023-08-01T09:24:19;16.90;99.90
10419;DHT22;5256;48.728;9.140;2023-08-01T09:26:46;16.90;99.90
10419;DHT22;5256;48.728;9.140;2023-08-01T09:29:12;16.90;99.90
10419;DHT22;5256;48.728;9.140;2023-08-01T09:31:41;17.00;99.90
10419;DHT22;5256;48.728;9.140;2023-08-01T09:34:19;17.00;99.90
10419;DHT22;5256;48.728;9.140;2023-08-01T09:36:44;17.10;99.90
10419;DHT22;5256;48.728;9.140;2023-08-01T09:39:18;17.10;99.90
10419;DHT22;5256;48.728;9.140;2023-08-01T09:41:45;17.20;99.90
10419;DHT22;5256;48.728;9.140;2023-08-01T09:44:19;17.30;99.90
10419;DHT22;5256;48.728;9.140;2023-08-01T09:46:55;17.40;99.90
10419;DHT22;5256;48.728;9.140;2023-08-01T09:49:21;17.40;99.90
10419;DHT22;5256;48.728;9.140;2023-08-01T09:51:50;17.50;99.90
10419;DHT22;5256;48.728;9.140;2023-08-01T09:54:17;17.50;99.90
10419;DHT22;5256;48.728;9.140;2023-08-01T09:56:47;17.40;99.90
10419;DHT22;5256;48.728;9.140;2023-08-01T09:59:20;17.50;99.90
10419;DHT22;5256;48.728;9.140;2023-08-01T10:01:49;17.70;99.90
10419;DHT22;5256;48.728;9.140;2023-08-01T10:04:20;17.80;99.90
10419;DHT22;5256;48.728;9.140;2023-08-01T10:06:49;17.90;99.90
10419;DHT22;5256;48.728;9.140;2023-08-01T10:09:18;18.10;99.90
10419;DHT22;5256;48.728;9.140;2023-08-01T10:11:44;18.20;99.90
10419;DHT22;5256;48.728;9.140;2023-08-01T10:14:11;18.20;99.90
10419;DHT22;5256;48.728;9.140;2023-08-01T10:16:36;18.10;99.90
10419;DHT22;5256;48.728;9.140;2023-08-01T10:19:04;18.10;99.90
10419;DHT22;5256;48.728;9.140;2023-08-01T10:21:31;18.20;99.90
10419;DHT22;5256;48.728;9.140;2023-08-01T10:23:58;18.30;99.90
10419;DHT22;5256;48.728;9.140;2023-08-01T10:26:24;18.40;99.90
10419;DHT22;5256;48.728;9.140;2023-08-01T10:28:51;18.40;99.90
10419;DHT22;5256;48.728;9.140;2023-08-01T10:31:18;18.40;99.90
10419;DHT22;5256;48.728;9.140;2023-08-01T10:33:46;18.40;99.90
10419;DHT22;5256;48.728;9.140;2023-08-01T10:36:16;18.50;99.90
10419;DHT22;5256;48.728;9.140;2023-08-01T10:38:50;18.90;99.90
10419;DHT22;5256;48.728;9.140;2023-08-01T10:41:26;18.70;99.90
10419;DHT22;5256;48.728;9.140;2023-08-01T10:44:04;18.80;99.90
10419;DHT22;5256;48.728;9.140;2023-08-01T10:46:54;19.20;99.90
10419;DHT22;5256;48.728;9.140;2023-08-01T10:49:32;19.90;99.90
10419;DHT22;5256;48.728;9.140;2023-08-01T10:51:58;20.50;99.90
10419;DHT22;5256;48.728;9.140;2023-08-01T10:54:25;20.80;99.90
10419;DHT22;5256;48.728;9.140;2023-08-01T10:56:53;20.60;99.90
10419;DHT22;5256;48.728;9.140;2023-08-01T10:59:19;20.30;99.90
10419;DHT22;5256;48.728;9.140;2023-08-01T11:01:49;19.80;99.90
10419;DHT22;5256;48.728;9.140;2023-08-01T11:04:16;19.50;99.90
10419;DHT22;5256;48.728;9.140;2023-08-01T11:06:46;19.50;99.90
10419;DHT22;5256;48.728;9.140;2023-08-01T11:09:22;19.70;99.90
10419;DHT22;5256;48.728;9.140;2023-08-01T11:11:51;19.90;99.90
10419;DHT22;5256;48.728;9.140;2023-08-01T11:14:19;19.90;99.90
10419;DHT22;5256;48.728;9.140;2023-08-01T11:16:45;19.90;99.90
10419;DHT22;5256;48.728;9.140;2023-08-01T11:19:26;19.70;99.90
10419;DHT22;5256;48.728;9.140;2023-08-01T11:21:53;19.60;99.90
10419;DHT22;5256;48.728;9.140;2023-08-01T11:24:19;19.50;99.90
10419;DHT22;5256;48.728;9.140;2023-08-01T11:26:47;19.40;99.90
10419;DHT22;5256;48.728;9.140;2023-08-01T11:29:14;19.30;99.90
10419;DHT22;5256;48.728;9.140;2023-08-01T11:31:41;19.40;99.90
10419;DHT22;5256;48.728;9.140;2023-08-01T11:34:08;19.40;99.90
10419;DHT22;5256;48.728;9.140;2023-08-01T11:36:36;19.40;99.90
10419;DHT22;5256;48.728;9.140;2023-08-01T11:39:02;19.40;99.90
10419;DHT22;5256;48.728;9.140;2023-08-01T11:41:28;19.40;99.90
10419;DHT22;5256;48.728;9.140;2023-08-01T11:43:55;19.50;99.90
10419;DHT22;5256;48.728;9.140;2023-08-01T11:46:22;19.60;99.90
10419;DHT22;5256;48.728;9.140;2023-08-01T11:48:48;19.70;99.90
10419;DHT22;5256;48.728;9.140;2023-08-01T11:51:15;19.70;99.90
10419;DHT22;5256;48.728;9.140;2023-08-01T11:53:41;19.80;99.90
10419;DHT22;5256;48.728;9.140;2023-08-01T11:56:07;20.10;99.90
10419;DHT22;5256;48.728;9.140;2023-08-01T11:58:34;20.20;99.90
10419;DHT22;5256;48.728;9.140;2023-08-01T12:01:13;20.20;99.90
10419;DHT22;5256;48.728;9.140;2023-08-01T12:03:50;20.40;99.90
10419;DHT22;5256;48.728;9.140;2023-08-01T12:06:16;20.50;99.90
10419;DHT22;5256;48.728;9.140;2023-08-01T12:08:43;20.50;99.90
10419;DHT22;5256;48.728;9.140;2023-08-01T12:13:47;21.00;99.90
10419;DHT22;5256;48.728;9.140;2023-08-01T12:16:13;21.10;99.90
10419;DHT22;5256;48.728;9.140;2023-08-01T12:18:42;21.10;99.90
10419;DHT22;5256;48.728;9.140;2023-08-01T12:21:10;21.00;99.90
10419;DHT22;5256;48.728;9.140;2023-08-01T12:23:36;21.20;99.90
10419;DHT22;5256;48.728;9.140;2023-08-01T12:26:01;21.30;99.90
10419;DHT22;5256;48.728;9.140;2023-08-01T12:28:27;21.30;99.90
10419;DHT22;5256;48.728;9.140;2023-08-01T12:30:52;21.20;99.90
10419;DHT22;5256;48.728;9.140;2023-08-01T12:33:18;21.10;99.90
10419;DHT22;5256;48.728;9.140;2023-08-01T12:35:44;20.90;99.90
10419;DHT22;5256;48.728;9.140;2023-08-01T12:38:09;20.90;99.90
10419;DHT22;5256;48.728;9.140;2023-08-01T12:40:35;20.80;99.90
10419;DHT22;5256;48.728;9.140;2023-08-01T12:43:00;20.90;99.90
10419;DHT22;5256;48.728;9.140;2023-08-01T12:45:26;21.10;99.90
10419;DHT22;5256;48.728;9.140;2023-08-01T12:47:52;21.30;99.90
10419;DHT22;5256;48.728;9.140;2023-08-01T12:50:17;21.40;99.90
10419;DHT22;5256;48.728;9.140;2023-08-01T12:52:43;21.40;99.90
10419;DHT22;5256;48.728;9.140;2023-08-01T12:55:08;21.30;99.90
10419;DHT22;5256;48.728;9.140;2023-08-01T12:57:34;21.20;99.90
10419;DHT22;5256;48.728;9.140;2023-08-01T13:00:00;21.10;99.90
10419;DHT22;5256;48.728;9.140;2023-08-01T13:02:26;21.10;99.90
10419;DHT22;5256;48.728;9.140;2023-08-01T13:04:53;21.20;99.90
10419;DHT22;5256;48.728;9.140;2023-08-01T13:07:18;21.30;99.90
10419;DHT22;5256;48.728;9.140;2023-08-01T13:09:44;21.40;99.90
10419;DHT22;5256;48.728;9.140;2023-08-01T13:12:10;21.40;99.90
10419;DHT22;5256;48.728;9.140;2023-08-01T13:14:35;21.40;99.90
10419;DHT22;5256;48.728;9.140;2023-08-01T13:17:01;21.40;99.90
10419;DHT22;5256;48.728;9.140;2023-08-01T13:19:27;21.40;99.90
10419;DHT22;5256;48.728;9.140;2023-08-01T13:21:53;21.50;99.90
10419;DHT22;5256;48.728;9.140;2023-08-01T13:24:19;21.50;99.90
10419;DHT22;5256;48.728;9.140;2023-08-01T13:26:45;21.70;99.90
10419;DHT22;5256;48.728;9.140;2023-08-01T13:29:10;21.70;99.90
10419;DHT22;5256;48.728;9.140;2023-08-01T13:31:36;21.70;99.90
10419;DHT22;5256;48.728;9.140;2023-08-01T13:34:01;21.70;99.90
10419;DHT22;5256;48.728;9.140;2023-08-01T13:36:27;21.80;99.90
10419;DHT22;5256;48.728;9.140;2023-08-01T13:38:52;22.00;99.90
10419;DHT22;5256;48.728;9.140;2023-08-01T13:41:18;22.10;99.90
10419;DHT22;5256;48.728;9.140;2023-08-01T13:43:43;22.10;99.90
10419;DHT22;5256;48.728;9.140;2023-08-01T13:46:13;22.30;99.90
10419;DHT22;5256;48.728;9.140;2023-08-01T13:48:43;22.50;99.90
10419;DHT22;5256;48.728;9.140;2023-08-01T13:51:09;22.60;99.90
10419;DHT22;5256;48.728;9.140;2023-08-01T13:53:35;22.50;99.90
10419;DHT22;5256;48.728;9.140;2023-08-01T13:56:06;22.50;99.90
10419;DHT22;5256;48.728;9.140;2023-08-01T13:58:32;22.30;99.90
10419;DHT22;5256;48.728;9.140;2023-08-01T14:01:05;22.30;99.90
10419;DHT22;5256;48.728;9.140;2023-08-01T14:03:38;22.20;99.90
10419;DHT22;5256;48.728;9.140;2023-08-01T14:06:09;22.10;99.90
10419;DHT22;5256;48.728;9.140;2023-08-01T14:08:34;22.30;99.90
10419;DHT22;5256;48.728;9.140;2023-08-01T14:11:02;22.50;99.90
10419;DHT22;5256;48.728;9.140;2023-08-01T14:13:28;22.60;99.90
10419;DHT22;5256;48.728;9.140;2023-08-01T14:15:53;23.00;99.90
10419;DHT22;5256;48.728;9.140;2023-08-01T14:18:19;23.50;99.90
10419;DHT22;5256;48.728;9.140;2023-08-01T14:20:45;23.90;99.90
10419;DHT22;5256;48.728;9.140;2023-08-01T14:23:10;24.10;99.90
10419;DHT22;5256;48.728;9.140;2023-08-01T14:25:36;24.40;99.90
10419;DHT22;5256;48.728;9.140;2023-08-01T14:28:01;24.60;99.90
10419;DHT22;5256;48.728;9.140;2023-08-01T14:30:27;24.80;99.90
10419;DHT22;5256;48.728;9.140;2023-08-01T14:33:07;25.40;99.90
10419;DHT22;5256;48.728;9.140;2023-08-01T14:35:34;25.50;99.70
10419;DHT22;5256;48.728;9.140;2023-08-01T14:38:00;25.60;99.60
10419;DHT22;5256;48.728;9.140;2023-08-01T14:40:26;25.80;98.70
10419;DHT22;5256;48.728;9.140;2023-08-01T14:42:52;25.80;98.10
10419;DHT22;5256;48.728;9.140;2023-08-01T14:45:17;25.80;98.00
10419;DHT22;5256;48.728;9.140;2023-08-01T14:47:44;26.30;97.70
10419;DHT22;5256;48.728;9.140;2023-08-01T14:50:10;25.80;96.10
10419;DHT22;5256;48.728;9.140;2023-08-01T14:52:36;25.60;95.90
10419;DHT22;5256;48.728;9.140;2023-08-01T14:55:01;25.10;97.10
10419;DHT22;5256;48.728;9.140;2023-08-01T14:57:27;25.30;96.60
10419;DHT22;5256;48.728;9.140;2023-08-01T14:59:53;25.20;97.20
10419;DHT22;5256;48.728;9.140;2023-08-01T15:02:19;25.50;98.10
10419;DHT22;5256;48.728;9.140;2023-08-01T15:04:45;25.90;97.90
10419;DHT22;5256;48.728;9.140;2023-08-01T15:07:10;26.60;96.70
10419;DHT22;5256;48.728;9.140;2023-08-01T15:09:36;26.60;95.80
10419;DHT22;5256;48.728;9.140;2023-08-01T15:12:01;26.60;95.60
10419;DHT22;5256;48.728;9.140;2023-08-01T15:14:27;26.40;96.10
10419;DHT22;5256;48.728;9.140;2023-08-01T15:16:53;26.20;96.70
10419;DHT22;5256;48.728;9.140;2023-08-01T15:19:18;26.40;96.30
10419;DHT22;5256;48.728;9.140;2023-08-01T15:21:47;26.40;96.20
10419;DHT22;5256;48.728;9.140;2023-08-01T15:24:12;26.30;96.30
10419;DHT22;5256;48.728;9.140;2023-08-01T15:26:38;25.90;96.10
10419;DHT22;5256;48.728;9.140;2023-08-01T15:29:03;25.60;97.10
10419;DHT22;5256;48.728;9.140;2023-08-01T15:31:29;26.00;96.40
10419;DHT22;5256;48.728;9.140;2023-08-01T15:33:55;26.50;96.30
10419;DHT22;5256;48.728;9.140;2023-08-01T15:36:26;26.60;95.50
10419;DHT22;5256;48.728;9.140;2023-08-01T15:38:53;26.50;95.90
10419;DHT22;5256;48.728;9.140;2023-08-01T15:41:18;26.60;95.80
10419;DHT22;5256;48.728;9.140;2023-08-01T15:43:44;26.50;95.10